ADDS METAR Data INFO
IDs: Format: Raw Decoded Include TAF

Data at: 1837 UTC 17 Oct 2017

KARA 171753Z 06006KT 10SM CLR 22/08 A3020 RMK AO2 SLP226 T02220078 10222 20100 58010
KARA 171653Z 07007KT 10SM CLR 20/08 A3022 RMK AO2 SLP232 T02000078
KARA 171553Z 06008KT 10SM CLR 18/08 A3023 RMK AO2 SLP235 T01830083
KARA 171453Z 04010KT 10SM CLR 17/08 A3023 RMK AO2 SLP236 T01670083 50004
KARA 171353Z 03009KT 10SM CLR 14/08 A3024 RMK AO2 SLP238 T01440083
KARA 171253Z 36007KT 10SM CLR 11/07 A3023 RMK AO2 SLP234 T01060072
KARA 171153Z 35007KT 10SM CLR 11/07 A3022 RMK AO2 SLP232 7//// T01060072 10156 20100 53014
KARA 171053Z 35007KT 10SM CLR 11/07 A3020 RMK AO2 SLP226 T01060067
KARA 170953Z AUTO 03008KT 10SM CLR 13/07 A3019 RMK AO2 SLP221 T01280072
KARA 170853Z AUTO 03010KT 10SM CLR 14/07 A3018 RMK AO2 SLP218 T01390072 56006
KARA 170753Z AUTO 02009KT 10SM CLR 14/07 A3018 RMK AO2 SLP218 T01390072
KARA 170653Z AUTO 02009KT 10SM CLR 14/07 A3019 RMK AO2 SLP222 T01440067
KARA 170553Z AUTO 03012KT 10SM CLR 16/07 A3020 RMK AO2 SLP224 T01560067 10194 20156 402440156 58004
KARA 170453Z AUTO 02013KT 10SM CLR 16/06 A3021 RMK AO2 SLP229 T01610061
KARA 170353Z AUTO 02011KT 10SM CLR 16/07 A3021 RMK AO2 SLP229 T01610067
KARA 170253Z AUTO 01009KT 10SM CLR 17/07 A3021 RMK AO2 SLP228 T01670067 51021
KARA 170153Z 01009KT 10SM CLR 17/07 A3020 RMK AO2 SLP224 T01720067
KARA 162353Z 01010KT 10SM CLR 19/06 A3015 RMK AO2 SLP208 T01940061 10244 20194 53015
KARA 162253Z 01012KT 10SM CLR 22/06 A3012 RMK AO2 SLP198 T02220061
KARA 162153Z 02017G21KT 10SM CLR 23/06 A3010 RMK AO2 SLP193 T02330056
KARA 162053Z 02013KT 10SM CLR 24/07 A3010 RMK AO2 SLP193 T02390072 56019
KARA 161953Z 01015KT 10SM CLR 24/07 A3011 RMK AO2 SLP195 T02390067
KARA 161853Z 02015G22KT 10SM CLR 23/07 A3013 RMK AO2 SLP201 T02330067
KARA 161753Z 02019G25KT 10SM CLR 22/07 A3016 RMK AO2 SLP212 6//// T02220067 10228 20172 58014
KARA 161653Z 02018KT 10SM CLR 22/08 A3019 RMK AO2 SLP221 T02220083
KARA 161553Z 03019G24KT 10SM CLR 20/09 A3019 RMK AO2 RAB28E37 SLP224 T02000094
KARA 161453Z 01019G25KT 10SM CLR 19/10 A3020 RMK AO2 PK WND 03026/1415 SLP226 T01940100 53017 $
KARA 161353Z 01017G23KT 10SM CLR 18/11 A3019 RMK AO2 SLP221 T01780106 $
KARA 161253Z 02015KT 10SM FEW070 17/10 A3016 RMK AO2 SLP214 T01720100 $
KARA 161153Z 02012KT 10SM FEW060 17/10 A3015 RMK AO2 SLP209 T01720100 10222 20172 53017 $
KARA 161053Z 36012KT 10SM SCT055 18/12 A3012 RMK AO2 SLP200 T01780117 $
KARA 160953Z AUTO 01013G22KT 10SM BKN100 18/12 A3010 RMK AO2 SLP193 T01830117 $
KARA 160853Z AUTO 01012KT 10SM OVC035 19/14 A3010 RMK AO2 SLP192 T01940144 56007 $
KARA 160753Z AUTO 36012KT 10SM FEW032 BKN047 20/16 A3011 RMK AO2 SLP194 T02000156 $
KARA 160732Z AUTO 36013KT 10SM OVC031 21/16 A3011 RMK AO2 T02060161 $
KARA 160653Z AUTO 01015G21KT 10SM OVC028 21/16 A3011 RMK AO2 SLP195 T02110161 $